L71 weather

California City Municipal Airport
California City, California, United States

Public forecast

Using degrees Fahrenheit for public forecast. Weather courtesy of forecast.io.

Closest aviation weather report (METAR) to California City Municipal Airport

Closest report is Mojave Airport, 8.6 nm (16.0 km) SW. Retrieved 2020/03/30 15:40 UTC (17 minutes ago):

KMHV 301540Z AUTO 14005KT 10SM CLR 09/02 A3022 RMK A01

Closest aviation forecast (TAF) to California City Municipal Airport

Forecast is more than 12 hours old.

Closest forecast is Edwards Air Force Base, 16.1 nm (29.9 km) SSE. Retrieved 2020/03/29 17:39 UTC (22 hours ago):

TAF TAF KEDW 291700Z 2917/3023 27012G18KT 9999 BKN040 QNH3007INS BECMG 2920/2921 27020G25KT 9999 BKN040 QNH3000INS BECMG 3003/3004 27012KT 9999 BKN040 QNH3002INS BECMG 3007/3008 VRB06KT 9999 BKN040 QNH3009INS TX21/3022Z TN02/3012Z LAST NO AMDS AFT 2917 NEXT 3013